sensor_id;sensor_type;location;lat;lon;timestamp;P1;durP1;ratioP1;P2;durP2;ratioP2
37787;SDS011;23627;53.302;-6.362;2024-02-16T00:00:14;7.05;;;2.42;;
37787;SDS011;23627;53.302;-6.362;2024-02-16T00:02:44;4.55;;;2.08;;
37787;SDS011;23627;53.302;-6.362;2024-02-16T00:05:11;7.63;;;2.17;;
37787;SDS011;23627;53.302;-6.362;2024-02-16T00:07:38;6.43;;;2.05;;
37787;SDS011;23627;53.302;-6.362;2024-02-16T00:10:04;5.63;;;1.90;;
37787;SDS011;23627;53.302;-6.362;2024-02-16T00:12:31;5.65;;;1.92;;
37787;SDS011;23627;53.302;-6.362;2024-02-16T00:14:58;6.18;;;2.10;;
37787;SDS011;23627;53.302;-6.362;2024-02-16T00:17:24;3.45;;;1.88;;
37787;SDS011;23627;53.302;-6.362;2024-02-16T00:19:55;5.85;;;1.95;;
37787;SDS011;23627;53.302;-6.362;2024-02-16T00:22:22;6.93;;;2.10;;
37787;SDS011;23627;53.302;-6.362;2024-02-16T00:24:48;4.72;;;2.38;;
37787;SDS011;23627;53.302;-6.362;2024-02-16T00:27:14;3.47;;;2.30;;
37787;SDS011;23627;53.302;-6.362;2024-02-16T00:29:40;5.95;;;2.75;;
37787;SDS011;23627;53.302;-6.362;2024-02-16T00:32:07;4.18;;;2.45;;
37787;SDS011;23627;53.302;-6.362;2024-02-16T00:34:36;5.53;;;2.50;;
37787;SDS011;23627;53.302;-6.362;2024-02-16T00:37:02;7.07;;;3.05;;
37787;SDS011;23627;53.302;-6.362;2024-02-16T00:39:35;6.72;;;2.80;;
37787;SDS011;23627;53.302;-6.362;2024-02-16T00:42:01;5.78;;;2.90;;
37787;SDS011;23627;53.302;-6.362;2024-02-16T00:44:27;5.07;;;2.28;;
37787;SDS011;23627;53.302;-6.362;2024-02-16T00:46:53;5.43;;;2.47;;
37787;SDS011;23627;53.302;-6.362;2024-02-16T00:49:19;5.40;;;2.50;;
37787;SDS011;23627;53.302;-6.362;2024-02-16T00:51:45;5.60;;;2.22;;
37787;SDS011;23627;53.302;-6.362;2024-02-16T00:54:13;6.90;;;2.30;;
37787;SDS011;23627;53.302;-6.362;2024-02-16T00:56:39;5.60;;;2.20;;
37787;SDS011;23627;53.302;-6.362;2024-02-16T00:59:05;6.38;;;2.40;;
37787;SDS011;23627;53.302;-6.362;2024-02-16T01:01:30;7.25;;;2.53;;
37787;SDS011;23627;53.302;-6.362;2024-02-16T01:03:56;4.32;;;2.20;;
37787;SDS011;23627;53.302;-6.362;2024-02-16T01:06:22;4.95;;;2.10;;
37787;SDS011;23627;53.302;-6.362;2024-02-16T01:08:48;5.63;;;2.00;;
37787;SDS011;23627;53.302;-6.362;2024-02-16T01:11:14;4.18;;;1.80;;
37787;SDS011;23627;53.302;-6.362;2024-02-16T01:13:39;5.93;;;2.10;;
37787;SDS011;23627;53.302;-6.362;2024-02-16T01:16:05;5.20;;;1.98;;
37787;SDS011;23627;53.302;-6.362;2024-02-16T01:18:32;5.10;;;1.92;;
37787;SDS011;23627;53.302;-6.362;2024-02-16T01:20:58;7.93;;;1.80;;
37787;SDS011;23627;53.302;-6.362;2024-02-16T01:23:24;4.20;;;1.48;;
37787;SDS011;23627;53.302;-6.362;2024-02-16T01:25:50;4.53;;;1.40;;
37787;SDS011;23627;53.302;-6.362;2024-02-16T01:28:19;4.10;;;1.83;;
37787;SDS011;23627;53.302;-6.362;2024-02-16T01:30:44;4.88;;;1.63;;
37787;SDS011;23627;53.302;-6.362;2024-02-16T01:33:10;5.50;;;1.90;;
37787;SDS011;23627;53.302;-6.362;2024-02-16T01:35:36;3.90;;;1.30;;
37787;SDS011;23627;53.302;-6.362;2024-02-16T01:38:02;2.67;;;1.38;;
37787;SDS011;23627;53.302;-6.362;2024-02-16T01:40:28;4.68;;;1.67;;
37787;SDS011;23627;53.302;-6.362;2024-02-16T01:42:54;4.47;;;1.33;;
37787;SDS011;23627;53.302;-6.362;2024-02-16T01:45:20;4.30;;;1.50;;
37787;SDS011;23627;53.302;-6.362;2024-02-16T01:47:50;5.95;;;1.40;;
37787;SDS011;23627;53.302;-6.362;2024-02-16T01:50:17;6.88;;;1.60;;
37787;SDS011;23627;53.302;-6.362;2024-02-16T01:52:44;5.15;;;1.10;;
37787;SDS011;23627;53.302;-6.362;2024-02-16T01:55:10;4.55;;;1.20;;
37787;SDS011;23627;53.302;-6.362;2024-02-16T01:57:42;7.85;;;1.70;;
37787;SDS011;23627;53.302;-6.362;2024-02-16T02:00:09;5.70;;;1.60;;
37787;SDS011;23627;53.302;-6.362;2024-02-16T02:02:36;4.90;;;1.25;;
37787;SDS011;23627;53.302;-6.362;2024-02-16T02:05:02;4.53;;;1.20;;
37787;SDS011;23627;53.302;-6.362;2024-02-16T02:07:31;4.50;;;1.30;;
37787;SDS011;23627;53.302;-6.362;2024-02-16T02:09:57;3.90;;;1.10;;
37787;SDS011;23627;53.302;-6.362;2024-02-16T02:12:22;2.65;;;1.10;;
37787;SDS011;23627;53.302;-6.362;2024-02-16T02:14:48;4.05;;;1.05;;
37787;SDS011;23627;53.302;-6.362;2024-02-16T02:17:15;3.20;;;1.10;;
37787;SDS011;23627;53.302;-6.362;2024-02-16T02:19:47;3.95;;;1.17;;
37787;SDS011;23627;53.302;-6.362;2024-02-16T02:22:17;3.72;;;0.93;;
37787;SDS011;23627;53.302;-6.362;2024-02-16T02:24:47;2.92;;;0.90;;
37787;SDS011;23627;53.302;-6.362;2024-02-16T02:27:14;4.15;;;1.13;;
37787;SDS011;23627;53.302;-6.362;2024-02-16T02:29:41;3.97;;;1.10;;
37787;SDS011;23627;53.302;-6.362;2024-02-16T02:32:07;4.00;;;1.17;;
37787;SDS011;23627;53.302;-6.362;2024-02-16T02:34:33;3.67;;;0.98;;
37787;SDS011;23627;53.302;-6.362;2024-02-16T02:37:01;3.47;;;0.90;;
37787;SDS011;23627;53.302;-6.362;2024-02-16T02:39:29;4.70;;;1.00;;
37787;SDS011;23627;53.302;-6.362;2024-02-16T02:41:55;4.82;;;1.00;;
37787;SDS011;23627;53.302;-6.362;2024-02-16T02:44:23;4.78;;;1.10;;
37787;SDS011;23627;53.302;-6.362;2024-02-16T02:46:50;5.32;;;1.15;;
37787;SDS011;23627;53.302;-6.362;2024-02-16T02:49:15;4.20;;;1.00;;
37787;SDS011;23627;53.302;-6.362;2024-02-16T02:51:41;2.72;;;0.80;;
37787;SDS011;23627;53.302;-6.362;2024-02-16T02:54:07;3.80;;;0.80;;
37787;SDS011;23627;53.302;-6.362;2024-02-16T02:56:33;3.50;;;0.80;;
37787;SDS011;23627;53.302;-6.362;2024-02-16T02:58:58;5.15;;;0.90;;
37787;SDS011;23627;53.302;-6.362;2024-02-16T03:01:24;3.03;;;0.90;;
37787;SDS011;23627;53.302;-6.362;2024-02-16T03:03:50;3.78;;;0.90;;
37787;SDS011;23627;53.302;-6.362;2024-02-16T03:06:19;3.80;;;0.80;;
37787;SDS011;23627;53.302;-6.362;2024-02-16T03:08:45;3.55;;;0.70;;
37787;SDS011;23627;53.302;-6.362;2024-02-16T03:11:11;3.25;;;0.80;;
37787;SDS011;23627;53.302;-6.362;2024-02-16T03:13:37;3.67;;;1.10;;
37787;SDS011;23627;53.302;-6.362;2024-02-16T03:16:03;4.85;;;1.10;;
37787;SDS011;23627;53.302;-6.362;2024-02-16T03:18:32;1.52;;;0.68;;
37787;SDS011;23627;53.302;-6.362;2024-02-16T03:20:59;2.20;;;0.75;;
37787;SDS011;23627;53.302;-6.362;2024-02-16T03:23:25;4.13;;;0.98;;
37787;SDS011;23627;53.302;-6.362;2024-02-16T03:25:51;3.45;;;0.70;;
37787;SDS011;23627;53.302;-6.362;2024-02-16T03:28:17;2.83;;;0.80;;
37787;SDS011;23627;53.302;-6.362;2024-02-16T03:30:43;3.95;;;0.80;;
37787;SDS011;23627;53.302;-6.362;2024-02-16T03:33:09;1.85;;;0.80;;
37787;SDS011;23627;53.302;-6.362;2024-02-16T03:35:35;3.13;;;0.80;;
37787;SDS011;23627;53.302;-6.362;2024-02-16T03:38:02;3.63;;;0.95;;
37787;SDS011;23627;53.302;-6.362;2024-02-16T03:40:28;3.15;;;0.85;;
37787;SDS011;23627;53.302;-6.362;2024-02-16T03:42:54;5.68;;;1.00;;
37787;SDS011;23627;53.302;-6.362;2024-02-16T03:45:20;3.72;;;0.90;;
37787;SDS011;23627;53.302;-6.362;2024-02-16T03:47:46;2.95;;;0.82;;
37787;SDS011;23627;53.302;-6.362;2024-02-16T03:50:17;4.22;;;0.80;;
37787;SDS011;23627;53.302;-6.362;2024-02-16T03:52:44;3.15;;;0.90;;
37787;SDS011;23627;53.302;-6.362;2024-02-16T03:55:10;3.45;;;1.00;;
37787;SDS011;23627;53.302;-6.362;2024-02-16T03:57:39;2.90;;;0.90;;
37787;SDS011;23627;53.302;-6.362;2024-02-16T04:00:06;2.55;;;0.75;;
37787;SDS011;23627;53.302;-6.362;2024-02-16T04:02:33;2.28;;;0.80;;
37787;SDS011;23627;53.302;-6.362;2024-02-16T04:04:59;2.38;;;0.70;;
37787;SDS011;23627;53.302;-6.362;2024-02-16T04:07:25;3.33;;;0.73;;
37787;SDS011;23627;53.302;-6.362;2024-02-16T04:09:50;2.92;;;0.82;;
37787;SDS011;23627;53.302;-6.362;2024-02-16T04:12:16;2.47;;;0.70;;
37787;SDS011;23627;53.302;-6.362;2024-02-16T04:14:42;2.75;;;0.80;;
37787;SDS011;23627;53.302;-6.362;2024-02-16T04:17:08;2.83;;;0.77;;
37787;SDS011;23627;53.302;-6.362;2024-02-16T04:19:36;3.20;;;0.88;;
37787;SDS011;23627;53.302;-6.362;2024-02-16T04:22:02;1.80;;;0.60;;
37787;SDS011;23627;53.302;-6.362;2024-02-16T04:24:28;3.72;;;0.80;;
37787;SDS011;23627;53.302;-6.362;2024-02-16T04:26:54;3.72;;;0.80;;
37787;SDS011;23627;53.302;-6.362;2024-02-16T04:29:20;4.13;;;0.80;;
37787;SDS011;23627;53.302;-6.362;2024-02-16T04:31:46;2.17;;;0.80;;
37787;SDS011;23627;53.302;-6.362;2024-02-16T04:34:13;1.58;;;0.70;;
37787;SDS011;23627;53.302;-6.362;2024-02-16T04:36:39;2.38;;;0.80;;
37787;SDS011;23627;53.302;-6.362;2024-02-16T04:39:04;4.85;;;0.90;;
37787;SDS011;23627;53.302;-6.362;2024-02-16T04:41:31;2.13;;;0.70;;
37787;SDS011;23627;53.302;-6.362;2024-02-16T04:43:56;1.77;;;0.80;;
37787;SDS011;23627;53.302;-6.362;2024-02-16T04:46:23;3.65;;;0.70;;
37787;SDS011;23627;53.302;-6.362;2024-02-16T04:48:49;1.88;;;0.80;;
37787;SDS011;23627;53.302;-6.362;2024-02-16T04:51:15;1.85;;;0.73;;
37787;SDS011;23627;53.302;-6.362;2024-02-16T04:53:40;1.98;;;0.70;;
37787;SDS011;23627;53.302;-6.362;2024-02-16T04:56:06;3.60;;;0.80;;
37787;SDS011;23627;53.302;-6.362;2024-02-16T04:58:32;2.15;;;0.52;;
37787;SDS011;23627;53.302;-6.362;2024-02-16T05:00:58;1.92;;;0.75;;
37787;SDS011;23627;53.302;-6.362;2024-02-16T05:03:24;4.10;;;0.80;;
37787;SDS011;23627;53.302;-6.362;2024-02-16T05:05:53;2.40;;;0.75;;
37787;SDS011;23627;53.302;-6.362;2024-02-16T05:08:22;1.92;;;0.80;;
37787;SDS011;23627;53.302;-6.362;2024-02-16T05:10:48;1.92;;;0.63;;
37787;SDS011;23627;53.302;-6.362;2024-02-16T05:13:14;2.28;;;0.73;;
37787;SDS011;23627;53.302;-6.362;2024-02-16T05:15:39;2.05;;;0.60;;
37787;SDS011;23627;53.302;-6.362;2024-02-16T05:18:05;2.20;;;0.70;;
37787;SDS011;23627;53.302;-6.362;2024-02-16T05:20:31;2.88;;;0.75;;
37787;SDS011;23627;53.302;-6.362;2024-02-16T05:22:57;2.88;;;0.70;;
37787;SDS011;23627;53.302;-6.362;2024-02-16T05:25:23;1.90;;;0.50;;
37787;SDS011;23627;53.302;-6.362;2024-02-16T05:27:49;2.92;;;0.60;;
37787;SDS011;23627;53.302;-6.362;2024-02-16T05:30:15;1.50;;;0.70;;
37787;SDS011;23627;53.302;-6.362;2024-02-16T05:32:41;1.15;;;0.52;;
37787;SDS011;23627;53.302;-6.362;2024-02-16T05:35:07;2.35;;;0.75;;
37787;SDS011;23627;53.302;-6.362;2024-02-16T05:37:37;2.05;;;0.52;;
37787;SDS011;23627;53.302;-6.362;2024-02-16T05:40:06;1.10;;;0.47;;
37787;SDS011;23627;53.302;-6.362;2024-02-16T05:42:44;1.67;;;0.50;;
37787;SDS011;23627;53.302;-6.362;2024-02-16T05:45:13;1.85;;;0.40;;
37787;SDS011;23627;53.302;-6.362;2024-02-16T05:47:40;1.85;;;0.50;;
37787;SDS011;23627;53.302;-6.362;2024-02-16T05:50:08;1.27;;;0.35;;
37787;SDS011;23627;53.302;-6.362;2024-02-16T05:52:34;2.33;;;0.50;;
37787;SDS011;23627;53.302;-6.362;2024-02-16T05:55:00;0.82;;;0.50;;
37787;SDS011;23627;53.302;-6.362;2024-02-16T05:57:26;0.98;;;0.60;;
37787;SDS011;23627;53.302;-6.362;2024-02-16T05:59:51;1.08;;;0.32;;
37787;SDS011;23627;53.302;-6.362;2024-02-16T06:02:17;1.75;;;0.47;;
37787;SDS011;23627;53.302;-6.362;2024-02-16T06:04:43;0.40;;;0.32;;
37787;SDS011;23627;53.302;-6.362;2024-02-16T06:07:09;1.88;;;0.47;;
37787;SDS011;23627;53.302;-6.362;2024-02-16T06:09:36;0.98;;;0.40;;
37787;SDS011;23627;53.302;-6.362;2024-02-16T06:12:05;1.38;;;0.40;;
37787;SDS011;23627;53.302;-6.362;2024-02-16T06:14:32;1.38;;;0.32;;
37787;SDS011;23627;53.302;-6.362;2024-02-16T06:16:59;1.67;;;0.50;;
37787;SDS011;23627;53.302;-6.362;2024-02-16T06:19:25;1.27;;;0.40;;
37787;SDS011;23627;53.302;-6.362;2024-02-16T06:21:52;1.02;;;0.40;;
37787;SDS011;23627;53.302;-6.362;2024-02-16T06:24:20;1.38;;;0.40;;
37787;SDS011;23627;53.302;-6.362;2024-02-16T06:26:46;0.50;;;0.30;;
37787;SDS011;23627;53.302;-6.362;2024-02-16T06:29:13;1.33;;;0.30;;
37787;SDS011;23627;53.302;-6.362;2024-02-16T06:31:39;1.52;;;0.35;;
37787;SDS011;23627;53.302;-6.362;2024-02-16T06:34:04;1.08;;;0.30;;
37787;SDS011;23627;53.302;-6.362;2024-02-16T06:36:30;1.13;;;0.30;;
37787;SDS011;23627;53.302;-6.362;2024-02-16T06:38:56;0.47;;;0.22;;
37787;SDS011;23627;53.302;-6.362;2024-02-16T06:41:25;1.80;;;0.30;;
37787;SDS011;23627;53.302;-6.362;2024-02-16T06:43:50;0.70;;;0.30;;
37787;SDS011;23627;53.302;-6.362;2024-02-16T06:46:16;0.70;;;0.22;;
37787;SDS011;23627;53.302;-6.362;2024-02-16T06:48:42;1.27;;;0.30;;
37787;SDS011;23627;53.302;-6.362;2024-02-16T06:51:08;1.75;;;0.40;;
37787;SDS011;23627;53.302;-6.362;2024-02-16T06:53:34;1.30;;;0.30;;
37787;SDS011;23627;53.302;-6.362;2024-02-16T06:55:59;0.82;;;0.30;;
37787;SDS011;23627;53.302;-6.362;2024-02-16T06:58:25;1.85;;;0.30;;
37787;SDS011;23627;53.302;-6.362;2024-02-16T07:00:51;1.95;;;0.20;;
37787;SDS011;23627;53.302;-6.362;2024-02-16T07:03:17;0.77;;;0.25;;
37787;SDS011;23627;53.302;-6.362;2024-02-16T07:05:43;1.30;;;0.20;;
37787;SDS011;23627;53.302;-6.362;2024-02-16T07:08:09;1.00;;;0.30;;
37787;SDS011;23627;53.302;-6.362;2024-02-16T07:10:35;1.00;;;0.20;;
37787;SDS011;23627;53.302;-6.362;2024-02-16T07:13:01;1.02;;;0.47;;
37787;SDS011;23627;53.302;-6.362;2024-02-16T07:15:27;1.25;;;0.20;;
37787;SDS011;23627;53.302;-6.362;2024-02-16T07:17:55;1.13;;;0.20;;
37787;SDS011;23627;53.302;-6.362;2024-02-16T07:20:22;0.68;;;0.15;;
37787;SDS011;23627;53.302;-6.362;2024-02-16T07:22:47;0.55;;;0.13;;
37787;SDS011;23627;53.302;-6.362;2024-02-16T07:25:16;0.60;;;0.10;;
37787;SDS011;23627;53.302;-6.362;2024-02-16T07:27:42;0.88;;;0.20;;
37787;SDS011;23627;53.302;-6.362;2024-02-16T07:30:08;0.30;;;0.10;;
37787;SDS011;23627;53.302;-6.362;2024-02-16T07:32:36;0.22;;;0.10;;
37787;SDS011;23627;53.302;-6.362;2024-02-16T07:35:02;1.20;;;0.20;;
37787;SDS011;23627;53.302;-6.362;2024-02-16T07:37:28;1.50;;;0.20;;
37787;SDS011;23627;53.302;-6.362;2024-02-16T07:39:54;1.48;;;0.10;;
37787;SDS011;23627;53.302;-6.362;2024-02-16T07:42:20;0.75;;;0.10;;
37787;SDS011;23627;53.302;-6.362;2024-02-16T07:44:45;0.60;;;0.10;;
37787;SDS011;23627;53.302;-6.362;2024-02-16T07:47:11;0.73;;;0.13;;
37787;SDS011;23627;53.302;-6.362;2024-02-16T07:49:40;0.90;;;0.10;;
37787;SDS011;23627;53.302;-6.362;2024-02-16T07:52:06;0.52;;;0.20;;
37787;SDS011;23627;53.302;-6.362;2024-02-16T07:54:32;0.60;;;0.20;;
37787;SDS011;23627;53.302;-6.362;2024-02-16T07:56:58;1.60;;;0.20;;
37787;SDS011;23627;53.302;-6.362;2024-02-16T07:59:24;1.05;;;0.20;;
37787;SDS011;23627;53.302;-6.362;2024-02-16T08:01:50;0.55;;;0.10;;
37787;SDS011;23627;53.302;-6.362;2024-02-16T08:04:16;1.00;;;0.20;;
37787;SDS011;23627;53.302;-6.362;2024-02-16T08:06:42;0.43;;;0.10;;
37787;SDS011;23627;53.302;-6.362;2024-02-16T08:09:08;1.25;;;0.15;;
37787;SDS011;23627;53.302;-6.362;2024-02-16T08:11:34;1.52;;;0.40;;
37787;SDS011;23627;53.302;-6.362;2024-02-16T08:13:59;0.47;;;0.20;;
37787;SDS011;23627;53.302;-6.362;2024-02-16T08:16:28;0.50;;;0.20;;
37787;SDS011;23627;53.302;-6.362;2024-02-16T08:18:54;1.08;;;0.32;;
37787;SDS011;23627;53.302;-6.362;2024-02-16T08:21:20;1.10;;;0.28;;
37787;SDS011;23627;53.302;-6.362;2024-02-16T08:23:46;0.85;;;0.28;;
37787;SDS011;23627;53.302;-6.362;2024-02-16T08:26:12;1.08;;;0.20;;
37787;SDS011;23627;53.302;-6.362;2024-02-16T08:28:38;0.63;;;0.10;;
37787;SDS011;23627;53.302;-6.362;2024-02-16T08:31:04;0.70;;;0.20;;
37787;SDS011;23627;53.302;-6.362;2024-02-16T08:33:31;1.08;;;0.20;;
37787;SDS011;23627;53.302;-6.362;2024-02-16T08:35:59;0.40;;;0.10;;
37787;SDS011;23627;53.302;-6.362;2024-02-16T08:38:25;0.10;;;0.10;;
37787;SDS011;23627;53.302;-6.362;2024-02-16T08:40:51;0.30;;;0.10;;
37787;SDS011;23627;53.302;-6.362;2024-02-16T08:43:18;0.30;;;0.10;;
37787;SDS011;23627;53.302;-6.362;2024-02-16T08:45:44;0.95;;;0.20;;
37787;SDS011;23627;53.302;-6.362;2024-02-16T08:48:09;0.55;;;0.20;;
37787;SDS011;23627;53.302;-6.362;2024-02-16T08:50:35;0.75;;;0.10;;
37787;SDS011;23627;53.302;-6.362;2024-02-16T08:53:01;0.52;;;0.20;;
37787;SDS011;23627;53.302;-6.362;2024-02-16T08:55:26;0.43;;;0.20;;
37787;SDS011;23627;53.302;-6.362;2024-02-16T08:57:52;0.63;;;0.10;;
37787;SDS011;23627;53.302;-6.362;2024-02-16T09:00:18;0.98;;;0.10;;
37787;SDS011;23627;53.302;-6.362;2024-02-16T09:02:44;0.38;;;0.10;;
37787;SDS011;23627;53.302;-6.362;2024-02-16T09:05:11;0.80;;;0.10;;
37787;SDS011;23627;53.302;-6.362;2024-02-16T09:07:37;1.05;;;0.20;;
37787;SDS011;23627;53.302;-6.362;2024-02-16T09:10:03;0.73;;;0.20;;
37787;SDS011;23627;53.302;-6.362;2024-02-16T09:12:29;0.73;;;0.10;;
37787;SDS011;23627;53.302;-6.362;2024-02-16T09:14:55;0.10;;;0.10;;
37787;SDS011;23627;53.302;-6.362;2024-02-16T09:17:24;0.20;;;0.10;;
37787;SDS011;23627;53.302;-6.362;2024-02-16T09:19:50;0.40;;;0.20;;
37787;SDS011;23627;53.302;-6.362;2024-02-16T09:22:16;0.65;;;0.28;;
37787;SDS011;23627;53.302;-6.362;2024-02-16T09:24:42;0.40;;;0.10;;
37787;SDS011;23627;53.302;-6.362;2024-02-16T09:27:11;0.40;;;0.20;;
37787;SDS011;23627;53.302;-6.362;2024-02-16T09:29:37;0.63;;;0.20;;
37787;SDS011;23627;53.302;-6.362;2024-02-16T09:32:03;0.40;;;0.10;;
37787;SDS011;23627;53.302;-6.362;2024-02-16T09:34:29;1.67;;;0.28;;
37787;SDS011;23627;53.302;-6.362;2024-02-16T09:36:55;0.22;;;0.10;;
37787;SDS011;23627;53.302;-6.362;2024-02-16T09:39:21;1.25;;;0.20;;
37787;SDS011;23627;53.302;-6.362;2024-02-16T09:41:49;0.65;;;0.10;;
37787;SDS011;23627;53.302;-6.362;2024-02-16T09:44:18;0.32;;;0.10;;
37787;SDS011;23627;53.302;-6.362;2024-02-16T09:46:47;1.73;;;0.20;;
37787;SDS011;23627;53.302;-6.362;2024-02-16T09:49:13;0.10;;;0.10;;
37787;SDS011;23627;53.302;-6.362;2024-02-16T09:51:41;0.30;;;0.10;;
37787;SDS011;23627;53.302;-6.362;2024-02-16T09:54:07;0.30;;;0.10;;
37787;SDS011;23627;53.302;-6.362;2024-02-16T09:56:33;0.40;;;0.20;;
37787;SDS011;23627;53.302;-6.362;2024-02-16T09:58:58;0.85;;;0.10;;
37787;SDS011;23627;53.302;-6.362;2024-02-16T10:01:25;1.10;;;0.10;;
37787;SDS011;23627;53.302;-6.362;2024-02-16T10:03:51;0.32;;;0.10;;
37787;SDS011;23627;53.302;-6.362;2024-02-16T10:06:17;0.40;;;0.10;;
37787;SDS011;23627;53.302;-6.362;2024-02-16T10:08:52;0.30;;;0.10;;
37787;SDS011;23627;53.302;-6.362;2024-02-16T10:11:22;0.98;;;0.20;;
37787;SDS011;23627;53.302;-6.362;2024-02-16T10:13:59;0.73;;;0.15;;
37787;SDS011;23627;53.302;-6.362;2024-02-16T10:16:26;0.20;;;0.10;;
37787;SDS011;23627;53.302;-6.362;2024-02-16T10:18:54;0.32;;;0.20;;
37787;SDS011;23627;53.302;-6.362;2024-02-16T10:21:43;0.95;;;0.20;;
37787;SDS011;23627;53.302;-6.362;2024-02-16T10:24:09;0.40;;;0.20;;
37787;SDS011;23627;53.302;-6.362;2024-02-16T10:26:37;0.80;;;0.20;;
37787;SDS011;23627;53.302;-6.362;2024-02-16T10:29:04;0.52;;;0.20;;
37787;SDS011;23627;53.302;-6.362;2024-02-16T10:31:36;0.30;;;0.20;;
37787;SDS011;23627;53.302;-6.362;2024-02-16T10:34:02;0.45;;;0.17;;
37787;SDS011;23627;53.302;-6.362;2024-02-16T10:36:35;1.00;;;0.20;;
37787;SDS011;23627;53.302;-6.362;2024-02-16T10:39:02;0.93;;;0.20;;
37787;SDS011;23627;53.302;-6.362;2024-02-16T10:41:31;0.75;;;0.20;;
37787;SDS011;23627;53.302;-6.362;2024-02-16T10:44:02;0.32;;;0.20;;
37787;SDS011;23627;53.302;-6.362;2024-02-16T10:46:29;0.20;;;0.10;;
37787;SDS011;23627;53.302;-6.362;2024-02-16T10:48:55;2.25;;;0.30;;
37787;SDS011;23627;53.302;-6.362;2024-02-16T10:51:31;0.65;;;0.20;;
37787;SDS011;23627;53.302;-6.362;2024-02-16T10:54:04;1.00;;;0.22;;
37787;SDS011;23627;53.302;-6.362;2024-02-16T10:56:35;0.82;;;0.20;;
37787;SDS011;23627;53.302;-6.362;2024-02-16T10:59:02;0.88;;;0.20;;
37787;SDS011;23627;53.302;-6.362;2024-02-16T11:01:31;0.30;;;0.10;;
37787;SDS011;23627;53.302;-6.362;2024-02-16T11:04:03;0.40;;;0.20;;
37787;SDS011;23627;53.302;-6.362;2024-02-16T11:06:29;0.57;;;0.20;;
37787;SDS011;23627;53.302;-6.362;2024-02-16T11:09:00;0.40;;;0.10;;
37787;SDS011;23627;53.302;-6.362;2024-02-16T11:11:32;0.80;;;0.20;;
37787;SDS011;23627;53.302;-6.362;2024-02-16T11:14:01;1.02;;;0.20;;
37787;SDS011;23627;53.302;-6.362;2024-02-16T11:16:28;0.93;;;0.25;;
37787;SDS011;23627;53.302;-6.362;2024-02-16T11:18:54;0.73;;;0.20;;
37787;SDS011;23627;53.302;-6.362;2024-02-16T11:21:21;0.88;;;0.28;;
37787;SDS011;23627;53.302;-6.362;2024-02-16T11:23:47;1.02;;;0.17;;
37787;SDS011;23627;53.302;-6.362;2024-02-16T11:26:14;0.38;;;0.10;;
37787;SDS011;23627;53.302;-6.362;2024-02-16T11:28:42;1.35;;;0.47;;
37787;SDS011;23627;53.302;-6.362;2024-02-16T11:31:08;1.25;;;0.20;;
37787;SDS011;23627;53.302;-6.362;2024-02-16T11:33:34;1.20;;;0.30;;
37787;SDS011;23627;53.302;-6.362;2024-02-16T11:36:06;0.70;;;0.20;;
37787;SDS011;23627;53.302;-6.362;2024-02-16T11:38:35;0.77;;;0.20;;
37787;SDS011;23627;53.302;-6.362;2024-02-16T11:43:30;0.98;;;0.30;;
37787;SDS011;23627;53.302;-6.362;2024-02-16T11:45:59;0.82;;;0.17;;
37787;SDS011;23627;53.302;-6.362;2024-02-16T11:48:36;1.77;;;0.30;;
37787;SDS011;23627;53.302;-6.362;2024-02-16T11:51:02;1.77;;;0.32;;
37787;SDS011;23627;53.302;-6.362;2024-02-16T11:53:29;0.52;;;0.17;;
37787;SDS011;23627;53.302;-6.362;2024-02-16T11:55:56;1.67;;;0.40;;
37787;SDS011;23627;53.302;-6.362;2024-02-16T11:58:22;0.90;;;0.20;;
37787;SDS011;23627;53.302;-6.362;2024-02-16T12:00:49;1.65;;;0.38;;
37787;SDS011;23627;53.302;-6.362;2024-02-16T12:03:25;1.55;;;0.28;;
37787;SDS011;23627;53.302;-6.362;2024-02-16T12:05:57;2.25;;;0.22;;
37787;SDS011;23627;53.302;-6.362;2024-02-16T12:08:24;1.50;;;0.40;;
37787;SDS011;23627;53.302;-6.362;2024-02-16T12:11:00;1.73;;;0.40;;
37787;SDS011;23627;53.302;-6.362;2024-02-16T12:13:27;0.85;;;0.20;;
37787;SDS011;23627;53.302;-6.362;2024-02-16T12:15:53;1.55;;;0.30;;
37787;SDS011;23627;53.302;-6.362;2024-02-16T12:18:25;2.65;;;0.30;;
37787;SDS011;23627;53.302;-6.362;2024-02-16T12:23:24;1.55;;;0.47;;
37787;SDS011;23627;53.302;-6.362;2024-02-16T12:25:50;1.30;;;0.30;;
37787;SDS011;23627;53.302;-6.362;2024-02-16T12:28:15;2.42;;;0.50;;
37787;SDS011;23627;53.302;-6.362;2024-02-16T12:30:41;1.52;;;0.40;;
37787;SDS011;23627;53.302;-6.362;2024-02-16T12:33:07;1.85;;;0.30;;
37787;SDS011;23627;53.302;-6.362;2024-02-16T12:35:33;1.00;;;0.30;;
37787;SDS011;23627;53.302;-6.362;2024-02-16T12:37:59;2.80;;;0.40;;
37787;SDS011;23627;53.302;-6.362;2024-02-16T12:40:25;1.95;;;0.35;;
37787;SDS011;23627;53.302;-6.362;2024-02-16T12:42:51;1.67;;;0.40;;
37787;SDS011;23627;53.302;-6.362;2024-02-16T12:45:17;1.23;;;0.60;;
37787;SDS011;23627;53.302;-6.362;2024-02-16T12:47:44;1.55;;;0.43;;
37787;SDS011;23627;53.302;-6.362;2024-02-16T12:50:10;2.30;;;0.40;;
37787;SDS011;23627;53.302;-6.362;2024-02-16T12:52:36;1.05;;;0.38;;
37787;SDS011;23627;53.302;-6.362;2024-02-16T12:55:04;1.75;;;0.40;;
37787;SDS011;23627;53.302;-6.362;2024-02-16T12:57:31;1.67;;;0.50;;
37787;SDS011;23627;53.302;-6.362;2024-02-16T12:59:57;1.40;;;0.35;;
37787;SDS011;23627;53.302;-6.362;2024-02-16T13:02:23;2.17;;;0.50;;
37787;SDS011;23627;53.302;-6.362;2024-02-16T13:04:48;1.08;;;0.38;;
37787;SDS011;23627;53.302;-6.362;2024-02-16T13:07:14;2.35;;;0.50;;
37787;SDS011;23627;53.302;-6.362;2024-02-16T13:09:40;3.03;;;0.68;;
37787;SDS011;23627;53.302;-6.362;2024-02-16T13:12:07;2.35;;;0.50;;
37787;SDS011;23627;53.302;-6.362;2024-02-16T13:14:33;1.20;;;0.20;;
37787;SDS011;23627;53.302;-6.362;2024-02-16T13:16:58;2.85;;;0.38;;
37787;SDS011;23627;53.302;-6.362;2024-02-16T13:19:24;2.17;;;0.47;;
37787;SDS011;23627;53.302;-6.362;2024-02-16T13:21:50;2.97;;;0.60;;
37787;SDS011;23627;53.302;-6.362;2024-02-16T13:24:16;1.33;;;0.35;;
37787;SDS011;23627;53.302;-6.362;2024-02-16T13:26:41;2.13;;;0.40;;
37787;SDS011;23627;53.302;-6.362;2024-02-16T13:29:07;1.17;;;0.40;;
37787;SDS011;23627;53.302;-6.362;2024-02-16T13:31:33;1.58;;;0.35;;
37787;SDS011;23627;53.302;-6.362;2024-02-16T13:33:59;2.28;;;0.30;;
37787;SDS011;23627;53.302;-6.362;2024-02-16T13:36:25;2.40;;;0.40;;
37787;SDS011;23627;53.302;-6.362;2024-02-16T13:38:51;3.42;;;0.40;;
37787;SDS011;23627;53.302;-6.362;2024-02-16T13:41:18;3.53;;;0.30;;
37787;SDS011;23627;53.302;-6.362;2024-02-16T13:43:44;2.75;;;0.50;;
37787;SDS011;23627;53.302;-6.362;2024-02-16T13:46:10;2.88;;;0.40;;
37787;SDS011;23627;53.302;-6.362;2024-02-16T13:48:35;1.70;;;0.30;;
37787;SDS011;23627;53.302;-6.362;2024-02-16T13:51:02;2.25;;;0.40;;
37787;SDS011;23627;53.302;-6.362;2024-02-16T13:53:30;3.83;;;0.50;;
37787;SDS011;23627;53.302;-6.362;2024-02-16T13:55:56;2.47;;;0.55;;
37787;SDS011;23627;53.302;-6.362;2024-02-16T13:58:25;2.10;;;0.40;;
37787;SDS011;23627;53.302;-6.362;2024-02-16T14:00:52;1.80;;;0.40;;
37787;SDS011;23627;53.302;-6.362;2024-02-16T14:03:20;2.40;;;0.68;;
37787;SDS011;23627;53.302;-6.362;2024-02-16T14:05:46;1.90;;;0.60;;
37787;SDS011;23627;53.302;-6.362;2024-02-16T14:08:12;2.80;;;0.55;;
37787;SDS011;23627;53.302;-6.362;2024-02-16T14:10:40;3.08;;;0.70;;
37787;SDS011;23627;53.302;-6.362;2024-02-16T14:13:05;2.58;;;0.47;;
37787;SDS011;23627;53.302;-6.362;2024-02-16T14:15:31;1.90;;;0.40;;
37787;SDS011;23627;53.302;-6.362;2024-02-16T14:17:57;2.55;;;0.50;;
37787;SDS011;23627;53.302;-6.362;2024-02-16T14:20:23;3.30;;;0.60;;
37787;SDS011;23627;53.302;-6.362;2024-02-16T14:22:49;5.22;;;0.70;;
37787;SDS011;23627;53.302;-6.362;2024-02-16T14:25:16;3.05;;;0.55;;
37787;SDS011;23627;53.302;-6.362;2024-02-16T14:27:42;2.38;;;0.50;;
37787;SDS011;23627;53.302;-6.362;2024-02-16T14:30:08;6.35;;;1.00;;
37787;SDS011;23627;53.302;-6.362;2024-02-16T14:32:34;2.55;;;0.55;;
37787;SDS011;23627;53.302;-6.362;2024-02-16T14:35:00;3.63;;;0.50;;